Time;durP1;ratioP1;P1;durP2;ratioP2;P2;SDS_P1;SDS_P2;PMS_P1;PMS_P2;Temp;Humidity;BMP_temperature;BMP_pressure;BME280_temperature;BME280_humidity;BME280_pressure;Samples;Min_cycle;Max_cycle;Signal;HPM_P1;HPM_P2
2021/12/12 00:02:44;;;;;;;166.90;55.92;;;3.60;99.90;;;;;;5094229;28;20051;-73
2021/12/12 00:05:16;;;;;;;155.52;51.58;;;3.70;99.90;;;;;;5077593;28;20051;-72
2021/12/12 00:07:42;;;;;;;157.00;52.80;;;3.70;99.90;;;;;;5112940;28;20544;-73
2021/12/12 00:10:16;;;;;;;168.05;55.80;;;3.60;99.90;;;;;;5112442;28;20047;-73
2021/12/12 00:12:46;;;;;;;152.60;54.83;;;3.70;99.90;;;;;;5094789;28;20094;-73
2021/12/12 00:15:15;;;;;;;160.77;55.08;;;3.70;99.90;;;;;;5077667;28;20048;-73
2021/12/12 00:17:42;;;;;;;162.68;56.95;;;3.70;99.90;;;;;;5077524;28;20409;-73
2021/12/12 00:20:11;;;;;;;187.30;57.92;;;3.70;99.90;;;;;;5094558;28;20137;-73
2021/12/12 00:22:37;;;;;;;163.65;56.80;;;3.70;99.90;;;;;;5077798;28;20040;-73
2021/12/12 00:25:05;;;;;;;151.88;57.85;;;3.70;99.90;;;;;;5112346;28;20126;-73
2021/12/12 00:27:31;;;;;;;163.48;55.00;;;3.80;99.90;;;;;;5094618;28;20035;-73
2021/12/12 00:30:02;;;;;;;166.77;57.80;;;3.80;99.90;;;;;;5094636;28;20050;-73
2021/12/12 00:32:28;;;;;;;173.57;58.92;;;3.80;99.90;;;;;;5094597;28;20122;-73
2021/12/12 00:34:59;;;;;;;156.75;56.75;;;3.70;99.90;;;;;;5094614;28;20051;-73
2021/12/12 00:37:25;;;;;;;166.80;56.85;;;3.70;99.90;;;;;;5093614;28;20075;-73
2021/12/12 00:39:56;;;;;;;147.30;55.75;;;3.70;99.90;;;;;;5112352;28;20577;-73
2021/12/12 00:42:25;;;;;;;146.98;56.80;;;3.80;99.90;;;;;;5112107;28;20495;-73
2021/12/12 00:44:55;;;;;;;156.05;58.40;;;3.80;99.90;;;;;;5112182;28;20043;-73
2021/12/12 00:47:22;;;;;;;155.48;56.72;;;3.80;99.90;;;;;;5094061;28;20043;-73
2021/12/12 00:49:47;;;;;;;152.85;57.53;;;3.80;99.90;;;;;;5111505;28;20035;-73
2021/12/12 00:52:17;;;;;;;163.98;57.13;;;3.80;99.90;;;;;;5077481;28;20070;-73
2021/12/12 00:54:45;;;;;;;154.10;57.00;;;3.80;99.90;;;;;;5111888;28;20451;-73
2021/12/12 00:57:14;;;;;;;146.43;55.95;;;3.80;99.90;;;;;;5111870;28;20043;-73
2021/12/12 00:59:41;;;;;;;131.30;53.10;;;3.80;99.90;;;;;;5093797;28;20048;-73
2021/12/12 01:02:13;;;;;;;153.23;57.35;;;3.80;99.90;;;;;;5093880;28;20443;-73
2021/12/12 01:04:43;;;;;;;144.77;57.65;;;3.80;99.90;;;;;;5093411;28;20556;-73
2021/12/12 01:07:15;;;;;;;150.48;55.78;;;3.80;99.90;;;;;;5093265;28;20051;-73
2021/12/12 01:09:50;;;;;;;145.32;57.00;;;3.80;99.90;;;;;;5093211;28;20048;-73
2021/12/12 01:12:24;;;;;;;140.35;57.47;;;3.80;99.90;;;;;;5075680;28;20709;-73
2021/12/12 01:14:56;;;;;;;143.02;54.63;;;3.80;99.90;;;;;;5111555;28;20035;-73
2021/12/12 01:17:34;;;;;;;137.85;54.95;;;3.80;99.90;;;;;;5111512;28;20083;-73
2021/12/12 01:20:10;;;;;;;134.25;57.05;;;3.80;99.90;;;;;;5111064;28;20052;-73
2021/12/12 01:22:37;;;;;;;135.60;54.90;;;3.80;99.90;;;;;;5076692;28;20374;-74
2021/12/12 01:25:18;;;;;;;141.07;54.47;;;3.80;99.90;;;;;;5111263;28;20060;-73
2021/12/12 01:27:44;;;;;;;137.90;53.63;;;3.90;99.90;;;;;;5111144;28;20092;-73
2021/12/12 01:30:13;;;;;;;122.78;52.88;;;3.90;99.90;;;;;;5110848;28;20118;-74
2021/12/12 01:32:38;;;;;;;130.85;52.53;;;3.90;99.90;;;;;;5093291;28;20472;-73
2021/12/12 01:35:13;;;;;;;132.35;54.72;;;3.90;99.90;;;;;;5092957;28;20134;-73
2021/12/12 01:37:43;;;;;;;146.65;56.20;;;3.90;99.90;;;;;;5111133;28;20070;-73
2021/12/12 01:40:20;;;;;;;137.80;55.72;;;3.90;99.90;;;;;;5092902;28;20100;-74
2021/12/12 01:42:56;;;;;;;139.55;54.88;;;3.90;99.90;;;;;;5092590;28;20405;-73
2021/12/12 01:45:31;;;;;;;137.52;55.47;;;3.90;99.90;;;;;;5111045;28;20035;-73
2021/12/12 01:47:59;;;;;;;;;;;3.90;99.90;;;;;;5093469;28;20113;-74
2021/12/12 01:50:37;;;;;;;122.75;48.47;;;3.90;99.90;;;;;;5092819;28;19924;-73
2021/12/12 01:53:06;;;;;;;143.13;54.83;;;4.00;99.90;;;;;;5110715;28;20058;-73
2021/12/12 01:56:00;;;;;;;130.07;52.97;;;3.90;99.90;;;;;;5110657;28;20097;-73
2021/12/12 01:58:30;;;;;;;138.02;51.10;;;4.00;99.90;;;;;;5092490;28;20058;-73
2021/12/12 02:01:05;;;;;;;141.93;55.97;;;4.00;99.90;;;;;;5075510;28;20082;-73
2021/12/12 02:03:35;;;;;;;128.85;55.17;;;4.00;99.90;;;;;;5075800;28;20052;-73
2021/12/12 02:06:05;;;;;;;115.97;51.05;;;4.00;99.90;;;;;;5075636;28;20417;-73
2021/12/12 02:08:32;;;;;;;120.28;50.33;;;4.00;99.90;;;;;;5092237;28;20555;-73
2021/12/12 02:11:04;;;;;;;127.15;51.47;;;4.00;99.90;;;;;;5092222;28;20051;-74
2021/12/12 02:13:35;;;;;;;122.38;51.03;;;4.00;99.90;;;;;;5092293;28;20122;-73
2021/12/12 02:16:02;;;;;;;131.18;51.53;;;4.00;99.90;;;;;;5110306;28;20076;-73
2021/12/12 02:18:33;;;;;;;129.43;51.03;;;4.00;99.90;;;;;;5092025;28;20040;-74
2021/12/12 02:37:23;;;;;;;110.07;46.08;;;4.00;99.90;;;;;;5091753;28;20527;-73
2021/12/12 02:39:49;;;;;;;107.57;48.92;;;4.00;99.90;;;;;;5091861;28;20484;-73
2021/12/12 02:42:18;;;;;;;119.07;49.10;;;4.10;99.90;;;;;;5091664;28;20047;-72
2021/12/12 02:44:45;;;;;;;104.03;47.78;;;4.10;99.90;;;;;;5087994;28;20125;-72
2021/12/12 02:47:18;;;;;;;112.07;47.10;;;4.10;99.90;;;;;;5088152;28;20047;-72
2021/12/12 02:52:22;;;;;;;113.25;45.92;;;4.10;99.90;;;;;;5088473;28;20098;-73
2021/12/12 02:54:48;;;;;;;122.63;49.60;;;4.10;99.90;;;;;;5087936;28;20048;-72
2021/12/12 02:57:16;;;;;;;106.35;45.58;;;4.10;99.90;;;;;;5089554;28;20044;-72
2021/12/12 02:59:48;;;;;;;104.13;44.85;;;4.10;99.90;;;;;;5088273;28;20121;-72
2021/12/12 03:02:17;;;;;;;103.13;43.83;;;4.10;99.90;;;;;;5089464;28;20108;-72
2021/12/12 03:04:43;;;;;;;112.70;44.85;;;4.10;99.90;;;;;;5094225;28;20040;-72
2021/12/12 03:07:10;;;;;;;100.53;44.25;;;4.20;99.90;;;;;;5087486;28;20050;-72
2021/12/12 03:09:45;;;;;;;108.88;47.00;;;4.10;99.90;;;;;;5100877;28;20051;-72
2021/12/12 03:12:23;;;;;;;102.07;46.63;;;4.20;99.90;;;;;;5109796;28;20051;-72
2021/12/12 03:14:49;;;;;;;101.60;44.47;;;4.20;99.90;;;;;;5109532;28;20465;-72
2021/12/12 03:17:22;;;;;;;102.88;43.45;;;4.10;99.90;;;;;;5109549;28;20138;-72
2021/12/12 03:19:57;;;;;;;98.60;41.17;;;4.20;99.90;;;;;;5091268;28;20100;-73
2021/12/12 03:22:24;;;;;;;97.57;41.53;;;4.20;99.90;;;;;;5109698;28;20091;-72
2021/12/12 03:24:50;;;;;;;105.55;44.03;;;4.20;99.90;;;;;;5109892;28;20043;-72
2021/12/12 03:27:16;;;;;;;107.00;43.85;;;4.20;99.90;;;;;;5109604;28;20063;-73
2021/12/12 03:29:45;;;;;;;100.63;44.42;;;4.20;99.90;;;;;;5109586;28;20040;-73
2021/12/12 03:32:17;;;;;;;98.00;43.45;;;4.20;99.90;;;;;;5109205;28;20047;-72
2021/12/12 03:34:52;;;;;;;89.90;40.05;;;4.20;99.90;;;;;;5093079;28;20047;-73
2021/12/12 03:37:20;;;;;;;82.43;39.38;;;4.20;99.90;;;;;;5095173;28;20052;-73
2021/12/12 03:39:49;;;;;;;89.55;40.92;;;4.30;99.90;;;;;;5113450;28;20491;-73
2021/12/12 03:42:19;;;;;;;91.43;39.78;;;4.30;99.90;;;;;;5078323;28;20066;-72
2021/12/12 03:44:46;;;;;;;95.07;40.17;;;4.30;99.90;;;;;;5113355;28;20122;-73
2021/12/12 03:47:23;;;;;;;78.93;37.22;;;4.30;99.90;;;;;;5112895;28;20035;-73
2021/12/12 03:49:50;;;;;;;103.85;55.47;;;4.30;99.90;;;;;;5093574;28;20404;-73
2021/12/12 03:52:18;;;;;;;108.60;59.08;;;4.30;99.90;;;;;;5093942;28;20446;-73
2021/12/12 03:54:45;;;;;;;93.13;42.05;;;4.40;99.90;;;;;;5112958;28;20054;-73
2021/12/12 03:57:11;;;;;;;84.90;39.83;;;4.30;99.90;;;;;;5095049;28;20598;-73
2021/12/12 03:59:37;;;;;;;87.15;38.97;;;4.40;99.90;;;;;;5094555;28;20059;-73
2021/12/12 04:02:05;;;;;;;75.43;38.13;;;4.40;99.90;;;;;;5094892;28;20081;-73
2021/12/12 04:04:35;;;;;;;77.82;37.10;;;4.40;99.90;;;;;;5113221;28;20086;-73
2021/12/12 04:07:03;;;;;;;79.80;35.10;;;4.40;99.90;;;;;;5112762;28;20048;-74
2021/12/12 04:09:29;;;;;;;78.63;35.63;;;4.40;99.90;;;;;;5094909;28;20056;-73
2021/12/12 04:12:01;;;;;;;77.57;35.75;;;4.50;99.90;;;;;;5112698;28;20508;-73
2021/12/12 04:14:28;;;;;;;77.85;36.03;;;4.50;99.90;;;;;;5090794;28;20522;-73
2021/12/12 04:16:57;;;;;;;79.00;35.67;;;4.50;99.90;;;;;;5090761;28;20414;-73
2021/12/12 04:19:24;;;;;;;69.68;35.42;;;4.50;99.90;;;;;;5091171;28;20054;-73
2021/12/12 04:21:50;;;;;;;76.53;35.58;;;4.50;99.90;;;;;;5092035;28;20094;-73
2021/12/12 04:24:29;;;;;;;71.57;36.33;;;4.50;99.90;;;;;;5092184;28;20090;-73
2021/12/12 04:26:56;;;;;;;76.43;34.55;;;4.50;99.90;;;;;;5089941;28;20051;-73
2021/12/12 04:29:32;;;;;;;;;;;4.50;99.90;;;;;;5090422;28;20123;-73
2021/12/12 04:32:00;;;;;;;;;;;4.60;99.90;;;;;;5090921;28;20702;-73
2021/12/12 04:34:27;;;;;;;;;;;4.50;99.90;;;;;;5090715;28;20380;-73
2021/12/12 04:36:54;;;;;;;;;;;4.50;99.90;;;;;;5090439;28;19920;-73
2021/12/12 04:39:22;;;;;;;;;;;4.60;99.90;;;;;;5073609;28;19928;-73
2021/12/12 04:41:48;;;;;;;;;;;4.60;99.90;;;;;;5090568;28;19927;-73
2021/12/12 04:44:19;;;;;;;;;;;4.60;99.90;;;;;;5091605;28;20312;-73
2021/12/12 04:49:55;;;;;;;;;;;4.60;99.90;;;;;;5090137;28;20010;-73
2021/12/12 04:52:25;;;;;;;;;;;4.70;99.90;;;;;;5090292;28;19928;-74
2021/12/12 04:55:03;;;;;;;;;;;4.70;99.90;;;;;;5092303;28;19924;-73
2021/12/12 04:57:36;;;;;;;;;;;4.70;99.90;;;;;;5090958;28;20060;-73
2021/12/12 05:00:13;;;;;;;;;;;4.70;99.90;;;;;;5090975;28;19934;-73
2021/12/12 05:03:00;;;;;;;;;;;4.70;99.90;;;;;;5090656;28;20058;-73
2021/12/12 05:05:29;;;;;;;;;;;4.80;99.90;;;;;;5091113;28;19923;-73
2021/12/12 05:07:58;;;;;;;;;;;4.80;99.90;;;;;;5090570;28;20374;-73
2021/12/12 05:10:36;;;;;;;;;;;4.80;99.90;;;;;;5090453;28;19920;-73
2021/12/12 05:13:16;;;;;;;;;;;4.80;99.90;;;;;;5093821;28;20007;-73
2021/12/12 05:15:45;;;;;;;;;;;4.80;99.90;;;;;;5093300;28;19927;-73
2021/12/12 05:18:13;;;;;;;;;;;4.80;99.90;;;;;;5112165;28;19931;-73
2021/12/12 05:20:40;;;;;;;;;;;4.80;99.90;;;;;;5094290;28;19927;-73
2021/12/12 05:23:08;;;;;;;;;;;4.80;99.90;;;;;;5111757;28;20324;-73
2021/12/12 05:25:42;;;;;;;;;;;4.80;99.90;;;;;;5093721;28;19934;-73
2021/12/12 05:28:10;;;;;;;;;;;4.90;99.90;;;;;;5093812;28;19920;-73
2021/12/12 05:30:36;;;;;;;;;;;4.90;99.90;;;;;;5093256;28;19919;-73
2021/12/12 05:33:02;;;;;;;;;;;4.90;99.90;;;;;;5093617;28;19924;-73
2021/12/12 05:35:30;;;;;;;;;;;4.90;99.90;;;;;;5111914;28;19972;-73
2021/12/12 05:37:56;;;;;;;;;;;4.90;99.90;;;;;;5093310;28;19919;-73
2021/12/12 05:40:22;;;;;;;;;;;4.90;99.90;;;;;;5093200;28;19951;-73
2021/12/12 05:42:50;;;;;;;;;;;4.90;99.90;;;;;;5111787;28;20030;-73
2021/12/12 05:45:15;;;;;;;;;;;5.00;99.90;;;;;;5093312;28;19950;-73
2021/12/12 05:47:45;;;;;;;;;;;5.00;99.90;;;;;;5093385;28;20277;-73
2021/12/12 05:50:11;;;;;;;;;;;5.00;99.90;;;;;;5093295;28;20002;-73
2021/12/12 05:52:37;;;;;;;;;;;5.00;99.90;;;;;;5093249;28;19926;-73
2021/12/12 05:55:04;;;;;;;;;;;5.00;99.90;;;;;;5111136;28;19920;-73
2021/12/12 05:57:30;;;;;;;;;;;5.10;99.90;;;;;;5109688;28;19934;-73
2021/12/12 05:59:56;;;;;;;;;;;5.10;99.90;;;;;;5093386;28;19919;-73
2021/12/12 06:02:23;;;;;;;;;;;5.10;99.90;;;;;;5093528;28;19927;-73
2021/12/12 06:04:48;;;;;;;29.27;19.23;;;5.10;99.90;;;;;;5091960;28;19919;-73
2021/12/12 06:07:18;;;;;;;33.45;19.58;;;5.10;99.90;;;;;;5089073;28;20294;-73
2021/12/12 06:09:45;;;;;;;30.50;18.13;;;5.10;99.90;;;;;;5089040;28;20054;-73
2021/12/12 06:12:12;;;;;;;38.72;22.35;;;5.10;99.90;;;;;;5090433;28;20048;-73
2021/12/12 06:14:38;;;;;;;40.08;28.52;;;5.10;99.90;;;;;;5088844;28;20752;-73
2021/12/12 06:17:10;;;;;;;46.13;30.85;;;5.10;99.90;;;;;;5070725;28;21201;-73
2021/12/12 06:19:37;;;;;;;41.55;27.67;;;5.10;99.90;;;;;;5087417;28;20447;-73
2021/12/12 06:22:04;;;;;;;38.83;28.47;;;5.20;99.90;;;;;;5088762;28;20476;-73
2021/12/12 06:24:31;;;;;;;39.85;28.80;;;5.20;99.90;;;;;;5087508;28;20409;-73
2021/12/12 06:27:05;;;;;;;41.15;28.10;;;5.20;99.90;;;;;;5088623;28;20448;-73
2021/12/12 06:29:31;;;;;;;39.65;28.33;;;5.20;99.90;;;;;;5087204;28;20502;-73
2021/12/12 06:31:57;;;;;;;41.53;28.25;;;5.20;99.90;;;;;;5087101;28;21046;-73
2021/12/12 06:34:23;;;;;;;45.85;30.45;;;5.20;99.90;;;;;;5087645;28;20405;-73
2021/12/12 06:36:50;;;;;;;35.58;24.25;;;5.30;99.90;;;;;;5088552;28;20430;-73
2021/12/12 06:39:17;;;;;;;40.88;27.80;;;5.20;99.90;;;;;;5088205;28;20402;-73
2021/12/12 06:41:43;;;;;;;41.10;28.35;;;5.30;99.90;;;;;;5087433;28;20455;-73
2021/12/12 06:44:10;;;;;;;37.33;26.70;;;5.30;99.90;;;;;;5086843;28;20509;-73
2021/12/12 06:46:39;;;;;;;37.53;27.48;;;5.30;99.90;;;;;;5087336;28;20398;-73
2021/12/12 06:49:06;;;;;;;34.67;25.87;;;5.30;99.90;;;;;;5087608;28;20410;-73
2021/12/12 06:51:34;;;;;;;34.30;24.42;;;5.40;99.90;;;;;;5086942;28;20418;-73
2021/12/12 06:54:00;;;;;;;34.75;25.75;;;5.40;99.90;;;;;;5088246;28;20443;-73
2021/12/12 06:56:27;;;;;;;31.60;24.08;;;5.40;99.90;;;;;;5088441;28;21564;-73
2021/12/12 06:58:57;;;;;;;30.50;22.38;;;5.40;99.90;;;;;;5087072;28;20743;-73
2021/12/12 07:01:28;;;;;;;32.15;22.90;;;5.40;99.90;;;;;;5088007;28;20788;-73
2021/12/12 07:03:55;;;;;;;34.17;24.25;;;5.50;99.90;;;;;;5087466;28;20398;-73
2021/12/12 07:06:24;;;;;;;30.20;22.02;;;5.50;99.90;;;;;;5086744;28;20405;-73
2021/12/12 07:08:50;;;;;;;27.50;20.30;;;5.50;99.90;;;;;;5087745;28;20757;-73
2021/12/12 07:11:18;;;;;;;33.45;23.63;;;5.50;99.90;;;;;;5091820;28;20463;-73
2021/12/12 07:13:46;;;;;;;38.88;24.60;;;5.50;99.90;;;;;;5091406;28;20398;-73
2021/12/12 07:16:13;;;;;;;30.38;21.10;;;5.50;99.90;;;;;;5091833;28;20420;-73
2021/12/12 07:18:39;;;;;;;32.33;22.33;;;5.60;99.90;;;;;;5092380;28;20414;-73
2021/12/12 07:21:10;;;;;;;37.50;23.80;;;5.60;99.90;;;;;;5091080;28;20409;-73
2021/12/12 07:23:37;;;;;;;35.03;23.88;;;5.60;99.90;;;;;;5091584;28;20900;-73
2021/12/12 07:26:05;;;;;;;36.45;24.00;;;5.60;99.90;;;;;;5090428;28;20442;-73
2021/12/12 07:28:32;;;;;;;34.72;23.27;;;5.60;99.90;;;;;;5090951;28;20413;-73
2021/12/12 07:31:00;;;;;;;32.27;21.90;;;5.60;99.90;;;;;;5090906;28;20408;-73
2021/12/12 07:33:30;;;;;;;36.17;24.25;;;5.60;99.90;;;;;;5073861;28;20406;-73
2021/12/12 07:35:59;;;;;;;38.25;24.63;;;5.60;99.90;;;;;;5091238;28;20398;-73
2021/12/12 07:38:26;;;;;;;34.70;23.15;;;5.60;99.90;;;;;;5092038;28;20402;-73
2021/12/12 07:40:52;;;;;;;33.83;22.60;;;5.60;99.90;;;;;;5090372;28;20394;-73
2021/12/12 07:43:17;;;;;;;34.00;22.53;;;5.70;99.90;;;;;;5090676;28;20791;-73
2021/12/12 07:45:43;;;;;;;32.55;22.67;;;5.70;99.90;;;;;;5090284;28;20408;-73
2021/12/12 07:48:12;;;;;;;43.97;26.88;;;5.70;99.90;;;;;;5091705;28;20414;-73
2021/12/12 07:50:38;;;;;;;38.03;24.67;;;5.80;99.90;;;;;;5091582;28;20947;-73
2021/12/12 07:53:05;;;;;;;34.72;23.35;;;5.70;99.90;;;;;;5091597;28;20421;-73
2021/12/12 07:55:32;;;;;;;39.33;25.95;;;5.70;99.90;;;;;;5090506;28;20431;-73
2021/12/12 07:57:58;;;;;;;41.87;26.90;;;5.80;99.90;;;;;;5090106;28;20437;-73
2021/12/12 08:00:26;;;;;;;39.87;24.67;;;5.80;99.90;;;;;;5091395;28;20798;-73
2021/12/12 08:02:54;;;;;;;42.50;26.73;;;5.80;99.90;;;;;;5073362;28;20859;-73
2021/12/12 08:05:27;;;;;;;44.93;26.83;;;5.90;99.90;;;;;;5091292;28;20452;-73
2021/12/12 08:07:53;;;;;;;52.07;29.67;;;5.80;99.90;;;;;;5073185;28;20480;-73
2021/12/12 08:10:19;;;;;;;40.75;26.40;;;5.90;99.90;;;;;;5089882;28;20477;-73
2021/12/12 08:12:45;;;;;;;37.67;26.13;;;5.90;99.90;;;;;;5091124;28;20756;-73
2021/12/12 08:15:12;;;;;;;44.47;26.48;;;5.90;99.90;;;;;;5090828;28;20434;-73
2021/12/12 08:17:39;;;;;;;43.03;27.25;;;6.00;99.90;;;;;;5089521;28;20426;-73
2021/12/12 08:20:06;;;;;;;46.00;27.13;;;5.90;99.90;;;;;;5090273;28;20401;-73
2021/12/12 08:22:34;;;;;;;52.72;29.38;;;6.00;99.90;;;;;;5071985;28;20410;-73
2021/12/12 08:25:03;;;;;;;50.92;28.27;;;6.00;99.90;;;;;;5062136;28;20465;-73
2021/12/12 08:27:29;;;;;;;45.70;28.10;;;6.00;99.90;;;;;;5070380;28;20474;-74
2021/12/12 08:29:56;;;;;;;52.80;28.67;;;6.00;99.90;;;;;;5086894;28;20424;-74
2021/12/12 08:32:23;;;;;;;49.92;28.33;;;6.10;99.90;;;;;;5071783;28;20442;-74
2021/12/12 08:34:50;;;;;;;47.33;28.42;;;6.10;99.90;;;;;;5074031;28;20758;-73
2021/12/12 08:37:16;;;;;;;49.83;28.00;;;6.10;99.90;;;;;;5072457;28;20541;-74
2021/12/12 08:39:42;;;;;;;51.22;28.60;;;6.10;99.90;;;;;;5089822;28;20418;-73
2021/12/12 08:42:08;;;;;;;45.63;27.40;;;6.10;99.90;;;;;;5055800;28;20403;-74
2021/12/12 08:44:36;;;;;;;47.58;27.60;;;6.10;99.90;;;;;;5070654;28;20487;-74
2021/12/12 08:47:05;;;;;;;61.65;31.23;;;6.20;99.90;;;;;;5075342;28;20398;-74
2021/12/12 08:49:33;;;;;;;56.15;30.58;;;6.20;99.90;;;;;;5090459;28;20493;-75
2021/12/12 08:52:05;;;;;;;50.00;27.92;;;6.20;99.90;;;;;;5088785;28;20425;-73
2021/12/12 08:54:34;;;;;;;56.08;30.33;;;6.20;99.90;;;;;;5089006;28;20462;-73
2021/12/12 08:57:09;;;;;;;52.77;28.57;;;6.30;99.90;;;;;;5088907;28;20488;-74
2021/12/12 08:59:40;;;;;;;57.80;29.95;;;6.30;99.90;;;;;;5088127;28;20421;-74
2021/12/12 09:02:13;;;;;;;64.97;31.35;;;6.30;99.90;;;;;;5088828;28;20467;-74
2021/12/12 09:04:49;;;;;;;60.90;32.20;;;6.30;99.90;;;;;;5089702;28;20418;-72
2021/12/12 09:07:38;;;;;;;51.25;28.95;;;6.40;99.90;;;;;;5095935;28;20803;-72
2021/12/12 09:10:17;;;;;;;58.67;30.35;;;6.40;99.90;;;;;;5109554;28;20479;-73
2021/12/12 09:12:54;;;;;;;62.38;31.63;;;6.40;99.90;;;;;;5104231;28;20416;-72
2021/12/12 09:15:29;;;;;;;63.80;31.50;;;6.50;99.90;;;;;;5109998;28;20400;-72
2021/12/12 09:18:00;;;;;;;57.17;30.48;;;6.50;99.90;;;;;;5089312;28;20455;-72
2021/12/12 09:20:35;;;;;;;64.75;32.15;;;6.50;99.90;;;;;;5109744;28;20453;-72
2021/12/12 09:23:16;;;;;;;57.38;31.05;;;6.50;99.90;;;;;;5091519;28;21006;-72
2021/12/12 09:25:51;;;;;;;64.90;32.53;;;6.50;99.90;;;;;;5109930;28;20454;-72
2021/12/12 09:28:48;;;;;;;67.87;34.47;;;6.60;99.90;;;;;;5091900;28;20417;-72
2021/12/12 09:31:27;;;;;;;64.07;32.10;;;6.60;99.90;;;;;;5105114;28;20864;-72
2021/12/12 09:33:58;;;;;;;66.13;33.58;;;6.60;99.90;;;;;;5109270;28;20408;-73
2021/12/12 09:36:47;;;;;;;73.93;34.60;;;6.60;99.90;;;;;;5109100;28;20464;-73
2021/12/12 09:39:27;;;;;;;64.65;33.13;;;6.70;99.90;;;;;;5092026;28;20401;-72
2021/12/12 09:42:27;;;;;;;66.88;33.75;;;6.70;99.90;;;;;;5109474;28;20404;-72
2021/12/12 09:45:16;;;;;;;70.18;34.60;;;6.70;99.90;;;;;;5096375;28;20428;-72
2021/12/12 09:51:36;;;;;;;78.70;35.95;;;6.80;99.90;;;;;;5050367;28;20478;-73
2021/12/12 09:54:05;;;;;;;75.50;36.35;;;6.80;99.90;;;;;;5071042;28;20489;-73
2021/12/12 09:56:42;;;;;;;92.25;38.08;;;6.80;99.90;;;;;;5071052;28;20434;-73
2021/12/12 09:59:23;;;;;;;90.70;38.80;;;6.80;99.90;;;;;;5070495;28;20410;-73
2021/12/12 10:02:15;;;;;;;102.47;42.55;;;6.90;99.90;;;;;;5071241;28;20410;-73
2021/12/12 10:04:52;;;;;;;93.75;40.30;;;6.90;99.90;;;;;;5070773;28;20417;-73
2021/12/12 10:07:36;;;;;;;93.15;38.33;;;6.90;99.90;;;;;;5070165;28;20463;-74
2021/12/12 10:10:27;;;;;;;105.78;40.92;;;6.90;99.90;;;;;;5070444;28;20490;-73
2021/12/12 10:13:11;;;;;;;98.38;40.85;;;7.00;99.90;;;;;;5072862;28;20414;-74
2021/12/12 10:15:47;;;;;;;108.90;41.78;;;7.00;99.90;;;;;;5087282;28;20402;-73
2021/12/12 10:18:43;;;;;;;115.75;42.50;;;7.00;99.90;;;;;;5069778;28;20949;-73
2021/12/12 10:21:13;;;;;;;117.87;44.00;;;7.00;99.90;;;;;;5081477;28;20494;-74
2021/12/12 10:23:57;;;;;;;110.10;43.22;;;7.10;99.90;;;;;;5087097;28;20443;-73
2021/12/12 10:26:37;;;;;;;111.03;40.93;;;7.10;99.90;;;;;;5087130;28;20497;-73
2021/12/12 10:29:13;;;;;;;133.80;47.30;;;7.10;99.90;;;;;;5087208;28;20480;-74
2021/12/12 10:31:46;;;;;;;150.73;48.38;;;7.20;99.90;;;;;;5087017;28;21095;-73
2021/12/12 10:34:11;;;;;;;130.45;43.25;;;7.20;99.90;;;;;;5087074;28;20939;-73
2021/12/12 10:36:50;;;;;;;159.20;49.50;;;7.20;99.90;;;;;;5087541;28;20456;-73
2021/12/12 10:39:25;;;;;;;149.68;49.92;;;7.20;99.90;;;;;;5086718;28;20410;-73
2021/12/12 10:41:59;;;;;;;144.63;49.03;;;7.30;99.90;;;;;;5087338;28;20413;-73
2021/12/12 10:44:27;;;;;;;159.57;50.55;;;7.30;99.90;;;;;;5087203;28;20429;-73
2021/12/12 10:47:04;;;;;;;181.23;54.00;;;7.30;99.90;;;;;;5087092;28;20402;-73
2021/12/12 10:49:40;;;;;;;182.40;53.95;;;7.30;99.90;;;;;;5087095;28;20541;-73
2021/12/12 10:52:16;;;;;;;173.18;52.92;;;7.30;99.90;;;;;;5087515;28;20410;-73
2021/12/12 10:55:00;;;;;;;171.00;51.78;;;7.40;99.90;;;;;;5070516;28;20440;-73
2021/12/12 10:57:30;;;;;;;197.48;56.15;;;7.40;99.90;;;;;;5086985;28;20515;-73
2021/12/12 11:00:21;;;;;;;188.87;54.07;;;7.40;99.90;;;;;;5086811;28;20403;-73
2021/12/12 11:03:14;;;;;;;198.95;56.90;;;7.50;99.90;;;;;;5087054;28;20998;-73
2021/12/12 11:05:55;;;;;;;208.53;58.03;;;7.50;99.90;;;;;;5081794;28;20452;-73
2021/12/12 11:08:29;;;;;;;174.68;54.55;;;7.50;99.90;;;;;;5086571;28;20402;-73
2021/12/12 11:10:56;;;;;;;185.25;55.78;;;7.60;99.90;;;;;;5086656;28;20422;-73
2021/12/12 11:13:49;;;;;;;209.13;59.20;;;7.60;99.90;;;;;;5090278;28;20408;-73
2021/12/12 11:16:29;;;;;;;182.27;55.40;;;7.60;99.90;;;;;;5089602;28;20424;-73
2021/12/12 11:19:05;;;;;;;222.25;63.40;;;7.60;99.90;;;;;;5108273;28;20480;-73
2021/12/12 11:21:53;;;;;;;205.05;60.42;;;7.70;99.90;;;;;;5090068;28;20404;-73
2021/12/12 11:24:24;;;;;;;179.80;54.83;;;7.70;99.90;;;;;;5089131;28;20404;-73
2021/12/12 11:27:03;;;;;;;190.43;56.47;;;7.70;99.90;;;;;;5090156;28;20408;-73
2021/12/12 11:30:01;;;;;;;207.55;58.05;;;7.80;99.90;;;;;;5089625;28;20400;-74
2021/12/12 11:32:31;;;;;;;177.23;55.17;;;7.90;99.90;;;;;;5062011;28;20465;-74
2021/12/12 11:34:58;;;;;;;187.52;56.38;;;7.90;99.90;;;;;;5089959;28;21048;-73
2021/12/12 11:37:48;;;;;;;189.93;58.30;;;7.90;99.90;;;;;;5090037;28;20428;-74
2021/12/12 11:40:20;;;;;;;196.75;57.88;;;8.00;99.90;;;;;;5107844;28;20400;-74
2021/12/12 11:42:56;;;;;;;192.18;57.58;;;8.00;99.90;;;;;;5072605;28;20412;-74
2021/12/12 11:45:42;;;;;;;181.00;57.10;;;8.10;99.90;;;;;;5089667;28;20985;-74
2021/12/12 11:48:31;;;;;;;200.50;59.40;;;8.10;99.90;;;;;;5089815;28;20503;-74
2021/12/12 11:51:06;;;;;;;207.85;63.55;;;8.20;99.90;;;;;;5089790;28;20500;-74
2021/12/12 11:53:49;;;;;;;138.15;43.45;;;8.20;99.90;;;;;;5090667;28;20044;-74
2021/12/12 11:56:27;;;;;;;154.40;41.15;;;8.20;99.90;;;;;;5093212;28;20073;-74
2021/12/12 11:59:05;;;;;;;152.13;40.25;;;8.30;99.90;;;;;;5095281;28;20176;-74
2021/12/12 12:01:46;;;;;;;147.88;39.92;;;8.30;99.90;;;;;;5078002;28;20044;-74
2021/12/12 12:04:31;;;;;;;171.65;41.03;;;8.30;99.90;;;;;;5094858;28;20054;-74
2021/12/12 12:06:59;;;;;;;;;;;8.30;99.90;;;;;;5095159;28;20052;-74
2021/12/12 12:09:53;;;;;;;140.73;37.17;;;8.40;99.90;;;;;;5095025;28;19920;-74
2021/12/12 12:12:33;;;;;;;117.45;34.33;;;8.40;99.90;;;;;;5078357;28;20047;-74
2021/12/12 12:15:11;;;;;;;113.03;35.05;;;8.40;99.90;;;;;;5112805;28;20185;-74
2021/12/12 12:18:09;;;;;;;118.28;36.03;;;8.40;99.90;;;;;;5094159;28;20051;-74
2021/12/12 12:20:53;;;;;;;124.78;35.22;;;8.50;99.90;;;;;;5094800;28;20043;-74
2021/12/12 12:29:31;;;;;;;118.82;35.60;;;8.60;99.90;;;;;;5094608;28;20063;-74
2021/12/12 12:32:35;;;;;;;120.80;34.80;;;8.70;99.90;;;;;;5077286;28;20159;-74
2021/12/12 12:35:49;;;;;;;104.68;32.85;;;8.70;99.90;;;;;;5094377;28;20052;-74
2021/12/12 12:38:47;;;;;;;108.57;33.22;;;8.70;99.90;;;;;;5040159;28;20053;-74
2021/12/12 12:41:34;;;;;;;100.25;32.90;;;8.80;99.90;;;;;;5094053;28;20048;-74
2021/12/12 12:44:37;;;;;;;125.25;36.03;;;8.80;99.90;;;;;;5094382;28;20084;-74
2021/12/12 12:47:24;;;;;;;99.05;33.83;;;8.80;99.90;;;;;;5093960;28;20512;-74
2021/12/12 12:50:31;;;;;;;117.20;35.28;;;8.90;99.90;;;;;;5093805;28;20047;-74
2021/12/12 12:53:19;;;;;;;109.03;34.60;;;8.90;99.90;;;;;;5094013;28;20520;-74
2021/12/12 12:56:06;;;;;;;103.28;34.45;;;8.90;99.90;;;;;;5077111;28;20556;-74
2021/12/12 12:58:51;;;;;;;104.30;34.90;;;8.90;99.90;;;;;;5092985;28;20517;-74
2021/12/12 13:01:25;;;;;;;137.25;38.30;;;8.90;99.90;;;;;;5092129;28;20040;-74
2021/12/12 13:04:36;;;;;;;95.05;31.75;;;8.90;99.90;;;;;;5074226;28;20058;-72
2021/12/12 13:07:14;;;;;;;125.72;39.10;;;9.00;99.90;;;;;;5088466;28;20043;-72
2021/12/12 13:09:45;;;;;;;109.28;38.08;;;9.00;99.90;;;;;;5110448;28;20057;-73
2021/12/12 13:12:17;;;;;;;134.68;39.70;;;9.10;99.90;;;;;;5092380;28;20074;-73
2021/12/12 13:15:00;;;;;;;113.75;34.17;;;9.10;99.90;;;;;;5079582;28;20043;-73
2021/12/12 13:17:56;;;;;;;112.80;35.50;;;9.10;99.90;;;;;;5091744;28;20047;-73
2021/12/12 13:21:00;;;;;;;91.50;31.25;;;9.10;99.90;;;;;;5091387;28;20561;-73
2021/12/12 13:23:46;;;;;;;88.38;29.63;;;9.10;99.90;;;;;;5109017;28;20104;-73
2021/12/12 13:26:18;;;;;;;79.78;29.55;;;9.10;99.90;;;;;;5109772;28;20055;-73
2021/12/12 13:29:06;;;;;;;101.22;30.48;;;9.10;99.90;;;;;;5090744;28;20048;-74
2021/12/12 13:31:39;;;;;;;103.22;34.40;;;9.10;99.90;;;;;;5085282;28;20561;-73
2021/12/12 13:34:30;;;;;;;98.22;31.77;;;9.10;99.90;;;;;;5092128;28;20605;-73
2021/12/12 13:37:25;;;;;;;123.95;36.70;;;9.10;99.90;;;;;;5091741;28;20058;-73
2021/12/12 13:40:09;;;;;;;92.90;34.17;;;9.10;99.90;;;;;;5099124;28;20063;-73
2021/12/12 13:42:44;;;;;;;95.85;31.38;;;9.10;99.90;;;;;;5088425;28;20058;-74
2021/12/12 13:45:25;;;;;;;104.57;34.22;;;9.10;99.90;;;;;;5097781;28;20406;-74
2021/12/12 13:48:28;;;;;;;109.93;32.00;;;9.10;99.90;;;;;;5054835;28;20043;-73
2021/12/12 13:51:04;;;;;;;108.43;31.90;;;9.10;99.90;;;;;;5089491;28;20044;-73